Time;durP1;ratioP1;P1;durP2;ratioP2;P2;SDS_P1;SDS_P2;PMS_P1;PMS_P2;Temp;Humidity;BMP_temperature;BMP_pressure;BME280_temperature;BME280_humidity;BME280_pressure;Samples;Min_cycle;Max_cycle;Signal;HPM_P1;HPM_P2
2022/07/11 00:01:51;;;;;;;15.20;2.80;;;;;;;27.47;42.40;102535.81;5054598;28;20540;-70
2022/07/11 00:04:17;;;;;;;4.18;2.40;;;;;;;28.06;40.85;102538.78;5037200;28;20029;-70
2022/07/11 00:06:42;;;;;;;8.95;2.70;;;;;;;27.71;41.87;102530.00;5036939;28;20047;-70
2022/07/11 00:09:08;;;;;;;9.95;2.40;;;;;;;28.10;40.89;102531.41;5053320;28;20488;-70
2022/07/11 00:11:33;;;;;;;12.75;2.63;;;;;;;27.53;42.09;102523.84;5057429;28;20033;-70
2022/07/11 00:13:59;;;;;;;5.13;2.65;;;;;;;28.44;40.28;102527.63;5045600;28;20036;-70
2022/07/11 00:16:24;;;;;;;8.57;2.92;;;;;;;28.35;40.24;102527.28;5056936;28;20496;-70
2022/07/11 00:18:49;;;;;;;10.07;3.03;;;;;;;28.93;39.56;102518.44;5073772;28;20033;-70
2022/07/11 00:21:15;;;;;;;9.38;2.78;;;;;;;28.45;40.16;102525.78;5064756;28;20028;-70
2022/07/11 00:23:40;;;;;;;6.40;2.45;;;;;;;28.50;39.93;102530.91;5047364;28;20035;-70
2022/07/11 00:26:05;;;;;;;6.88;2.70;;;;;;;28.28;40.74;102532.16;5036725;28;20021;-71
2022/07/11 00:28:31;;;;;;;9.45;2.92;;;;;;;28.53;39.63;102526.19;5035478;28;20542;-70
2022/07/11 00:30:56;;;;;;;7.43;3.10;;;;;;;27.89;41.03;102526.28;5036643;28;20029;-71
2022/07/11 00:33:21;;;;;;;5.97;2.63;;;;;;;28.01;41.13;102523.88;5042352;28;20024;-72
2022/07/11 00:35:47;;;;;;;6.13;3.38;;;;;;;28.48;40.26;102528.31;5053540;28;20024;-70
2022/07/11 00:38:12;;;;;;;4.40;2.80;;;;;;;28.57;39.82;102525.03;5041904;28;20485;-70
2022/07/11 00:40:38;;;;;;;11.18;3.65;;;;;;;27.87;41.09;102528.19;5055433;28;20081;-70
2022/07/11 00:43:06;;;;;;;10.82;3.65;;;;;;;28.25;40.71;102521.59;5063360;28;20052;-70
2022/07/11 00:45:31;;;;;;;9.75;3.72;;;;;;;28.59;39.84;102517.75;5036215;28;20025;-70
2022/07/11 00:47:57;;;;;;;7.03;3.40;;;;;;;28.07;40.77;102518.16;5054580;28;20021;-71
2022/07/11 00:50:23;;;;;;;12.52;4.25;;;;;;;28.18;40.85;102521.09;5053329;28;20483;-71
2022/07/11 00:52:50;;;;;;;18.35;6.72;;;;;;;27.82;41.31;102515.97;5053149;28;20029;-70
2022/07/11 00:55:16;;;;;;;8.20;3.70;;;;;;;28.74;39.92;102516.00;5035612;28;20033;-70
2022/07/11 00:57:42;;;;;;;10.43;3.28;;;;;;;28.34;40.62;102509.44;5052980;28;20025;-70
2022/07/11 01:00:08;;;;;;;10.27;3.72;;;;;;;28.96;38.94;102516.50;5059905;28;20392;-71
2022/07/11 01:02:34;;;;;;;9.45;4.40;;;;;;;28.83;39.36;102519.94;5053946;28;20024;-70
2022/07/11 01:04:59;;;;;;;11.90;4.32;;;;;;;29.06;39.10;102517.66;5035144;28;20066;-70
2022/07/11 01:07:25;;;;;;;9.60;4.07;;;;;;;28.36;40.95;102516.44;5056372;28;20130;-70
2022/07/11 01:09:50;;;;;;;15.38;5.63;;;;;;;28.74;39.69;102523.19;5034929;28;20527;-70
2022/07/11 01:12:17;;;;;;;16.98;6.05;;;;;;;28.76;39.50;102521.28;5036300;28;20017;-70
2022/07/11 01:14:59;;;;;;;9.18;5.75;;;;;;;28.30;40.57;102521.31;5035551;28;20109;-70
2022/07/11 01:17:24;;;;;;;12.25;6.88;;;;;;;28.24;40.30;102523.41;5072952;28;20467;-70
2022/07/11 01:19:50;;;;;;;11.73;7.45;;;;;;;28.45;40.02;102517.72;5052872;28;20033;-70
2022/07/11 01:22:17;;;;;;;17.08;7.93;;;;;;;28.31;40.49;102525.75;5052547;28;20027;-70
2022/07/11 01:24:44;;;;;;;12.20;7.90;;;;;;;29.04;39.24;102524.97;5062667;28;20055;-70
2022/07/11 01:27:11;;;;;;;15.57;7.82;;;;;;;28.70;39.37;102532.41;5064242;28;20039;-70
2022/07/11 01:29:36;;;;;;;12.60;8.15;;;;;;;28.30;40.50;102529.38;5053556;28;20472;-70
2022/07/11 01:32:02;;;;;;;15.02;8.65;;;;;;;28.01;41.06;102521.19;5051143;28;20027;-71
2022/07/11 01:34:27;;;;;;;18.73;9.85;;;;;;;27.22;42.65;102528.22;5035716;28;20037;-70
2022/07/11 01:36:53;;;;;;;16.58;10.23;;;;;;;27.76;41.19;102527.94;5064520;28;20017;-70
2022/07/11 01:39:18;;;;;;;17.83;11.32;;;;;;;27.59;41.67;102523.53;5034853;28;20430;-70
2022/07/11 01:41:44;;;;;;;16.88;10.75;;;;;;;28.56;39.66;102520.66;5035256;28;20021;-71
2022/07/11 01:44:09;;;;;;;20.42;12.63;;;;;;;27.61;41.58;102526.13;5052301;28;20734;-70
2022/07/11 01:46:34;;;;;;;20.23;13.05;;;;;;;27.37;42.08;102518.50;5033479;28;20025;-70
2022/07/11 01:49:00;;;;;;;21.83;13.23;;;;;;;27.81;41.37;102523.19;5053136;28;20396;-70
2022/07/11 01:51:25;;;;;;;20.55;12.48;;;;;;;28.03;41.04;102522.00;5049434;28;20029;-71
2022/07/11 01:53:52;;;;;;;22.42;12.32;;;;;;;27.45;42.49;102527.00;5054007;28;20020;-70
2022/07/11 01:56:17;;;;;;;17.80;12.35;;;;;;;27.45;42.54;102518.94;5044087;28;20047;-70
2022/07/11 01:58:43;;;;;;;17.60;13.07;;;;;;;27.00;43.15;102531.19;5035827;28;20473;-70
2022/07/11 02:01:09;;;;;;;20.50;12.13;;;;;;;27.57;42.29;102520.03;5047054;28;20102;-70
2022/07/11 02:03:34;;;;;;;19.38;12.88;;;;;;;27.93;41.26;102511.72;5034767;28;20036;-70
2022/07/11 02:06:00;;;;;;;18.10;12.45;;;;;;;28.85;39.59;102507.28;5034866;28;20431;-70
2022/07/11 02:08:25;;;;;;;23.25;13.55;;;;;;;27.90;41.14;102514.59;5032728;28;20125;-70
2022/07/11 02:10:52;;;;;;;21.77;13.65;;;;;;;28.02;40.81;102509.50;5034789;28;20102;-70
2022/07/11 02:13:20;;;;;;;18.95;12.52;;;;;;;27.28;42.82;102513.59;5034483;28;20380;-70
2022/07/11 02:15:46;;;;;;;20.15;13.70;;;;;;;28.25;40.93;102506.31;5042427;28;20055;-70
2022/07/11 02:18:13;;;;;;;19.98;14.18;;;;;;;28.68;39.61;102502.91;5071403;28;20035;-70
2022/07/11 02:20:39;;;;;;;21.23;12.85;;;;;;;27.84;41.45;102511.41;5051102;28;20066;-70
2022/07/11 02:23:05;;;;;;;22.92;12.63;;;;;;;28.38;40.66;102508.28;5041959;28;20039;-70
2022/07/11 02:25:31;;;;;;;19.98;13.82;;;;;;;28.71;40.06;102502.72;5034964;28;20029;-70
2022/07/11 02:27:58;;;;;;;21.15;12.75;;;;;;;29.16;39.03;102508.03;5032695;28;20024;-70
2022/07/11 02:30:23;;;;;;;20.38;14.52;;;;;;;28.54;39.79;102501.03;5033128;28;20389;-70
2022/07/11 02:32:50;;;;;;;23.77;14.23;;;;;;;27.54;41.99;102499.59;5036450;28;20032;-70
2022/07/11 02:35:16;;;;;;;18.60;13.65;;;;;;;28.65;39.69;102495.03;5036807;28;20037;-70
2022/07/11 02:37:43;;;;;;;21.38;13.25;;;;;;;28.35;40.09;102497.72;5037377;28;20123;-70
2022/07/11 02:40:08;;;;;;;20.73;13.93;;;;;;;28.39;40.55;102504.66;5064191;28;20024;-70
2022/07/11 02:42:34;;;;;;;21.00;14.32;;;;;;;28.51;39.84;102505.72;5057700;28;20055;-70
2022/07/11 02:44:59;;;;;;;22.25;14.00;;;;;;;29.11;38.47;102502.06;5090904;28;20081;-70
2022/07/11 02:47:25;;;;;;;16.92;13.40;;;;;;;28.42;40.35;102507.16;5070940;28;20047;-70
2022/07/11 02:49:50;;;;;;;19.80;13.65;;;;;;;28.41;40.06;102497.34;5080034;28;20055;-70
2022/07/11 02:52:15;;;;;;;18.63;10.80;;;;;;;26.19;44.53;102508.44;5084335;28;20021;-70
2022/07/11 02:54:41;;;;;;;14.30;10.77;;;;;;;27.78;41.57;102501.88;5071788;28;20017;-70
2022/07/11 02:57:06;;;;;;;13.82;10.95;;;;;;;28.03;41.20;102500.50;5069119;28;20027;-70
2022/07/11 02:59:31;;;;;;;14.30;9.82;;;;;;;27.70;41.92;102494.25;5076002;28;20031;-71
2022/07/11 03:01:57;;;;;;;12.70;9.45;;;;;;;28.25;40.87;102506.31;5075269;28;20118;-70
2022/07/11 03:04:22;;;;;;;14.10;9.98;;;;;;;28.89;39.39;102500.75;5069665;28;20029;-70
2022/07/11 03:06:48;;;;;;;12.32;9.02;;;;;;;28.88;39.29;102496.31;5070439;28;20024;-70
2022/07/11 03:09:13;;;;;;;12.80;9.45;;;;;;;28.93;39.18;102491.53;5073041;28;20065;-70
2022/07/11 03:11:38;;;;;;;13.25;9.43;;;;;;;28.32;40.10;102500.59;5084113;28;20523;-71
2022/07/11 03:14:04;;;;;;;15.93;10.30;;;;;;;27.80;41.16;102499.09;5090361;28;20024;-70
2022/07/11 03:16:30;;;;;;;16.90;9.60;;;;;;;28.09;40.88;102500.97;5088634;28;20035;-70
2022/07/11 03:18:56;;;;;;;14.02;9.20;;;;;;;28.63;39.91;102498.75;5089316;28;20021;-70
2022/07/11 03:21:22;;;;;;;12.40;9.48;;;;;;;28.92;39.10;102500.53;5074945;28;20032;-71
2022/07/11 03:23:49;;;;;;;14.32;9.48;;;;;;;27.86;41.59;102504.09;5069372;28;20017;-69
2022/07/11 03:26:15;;;;;;;15.32;10.50;;;;;;;28.87;39.98;102505.34;5071636;28;20516;-71
2022/07/11 03:28:41;;;;;;;14.25;8.98;;;;;;;29.20;38.61;102501.50;5074109;28;20028;-70
2022/07/11 03:31:06;;;;;;;12.07;8.50;;;;;;;28.84;39.12;102508.22;5088166;28;20807;-70
2022/07/11 03:33:31;;;;;;;11.75;8.88;;;;;;;29.11;39.64;102499.38;5085160;28;20016;-71
2022/07/11 03:35:57;;;;;;;10.88;8.52;;;;;;;28.86;39.58;102506.28;5070064;28;20013;-70
2022/07/11 03:38:22;;;;;;;11.60;9.00;;;;;;;29.13;38.73;102513.63;5070839;28;20021;-70
2022/07/11 03:40:48;;;;;;;13.23;9.25;;;;;;;28.47;40.71;102520.31;5089264;28;20032;-70
2022/07/11 03:43:15;;;;;;;14.68;9.25;;;;;;;28.63;39.75;102510.38;5087149;28;20097;-70
2022/07/11 03:45:40;;;;;;;13.15;9.40;;;;;;;28.38;40.05;102506.44;5077063;28;20107;-70
2022/07/11 03:48:07;;;;;;;12.85;9.38;;;;;;;28.48;40.25;102506.78;5069484;28;20162;-71
2022/07/11 03:50:33;;;;;;;14.57;9.45;;;;;;;28.45;40.45;102506.97;5071019;28;20432;-71
2022/07/11 03:52:58;;;;;;;12.18;9.10;;;;;;;28.90;39.57;102510.53;5087407;28;20059;-71
2022/07/11 03:55:24;;;;;;;12.80;8.65;;;;;;;29.13;38.78;102500.16;5070586;28;20056;-71
2022/07/11 03:57:50;;;;;;;12.10;8.18;;;;;;;29.12;38.49;102501.13;5071214;28;20480;-71
2022/07/11 04:00:16;;;;;;;10.95;8.52;;;;;;;28.18;40.95;102502.28;5088928;28;20093;-71
2022/07/11 04:02:42;;;;;;;11.68;8.27;;;;;;;29.05;39.30;102505.16;5090081;28;20016;-71
2022/07/11 04:05:07;;;;;;;10.50;7.95;;;;;;;28.46;40.23;102507.84;5071087;28;20074;-71
2022/07/11 04:07:33;;;;;;;11.45;7.18;;;;;;;28.58;40.24;102507.97;5089070;28;20032;-70
2022/07/11 04:09:58;;;;;;;13.10;7.72;;;;;;;28.24;40.79;102512.66;5084541;28;20023;-71
2022/07/11 04:12:24;;;;;;;12.50;8.48;;;;;;;27.62;42.17;102514.44;5073398;28;20115;-71
2022/07/11 04:14:50;;;;;;;12.07;7.30;;;;;;;28.41;40.60;102505.41;5068193;28;20094;-71
2022/07/11 04:17:15;;;;;;;10.80;6.28;;;;;;;28.54;40.40;102511.78;5071053;28;20056;-71
2022/07/11 04:19:45;;;;;;;10.63;6.03;;;;;;;28.93;39.77;102507.66;5071285;28;20028;-71
2022/07/11 04:22:11;;;;;;;13.65;5.93;;;;;;;28.19;41.12;102509.38;5069017;28;20298;-71
2022/07/11 04:24:36;;;;;;;10.38;4.50;;;;;;;27.36;42.58;102511.38;5084387;28;20020;-70
2022/07/11 04:27:01;;;;;;;6.30;4.00;;;;;;;28.39;40.56;102512.72;5076365;28;20020;-71
2022/07/11 04:29:27;;;;;;;7.43;3.30;;;;;;;28.47;40.81;102507.75;5088711;28;20016;-71
2022/07/11 04:31:52;;;;;;;6.93;3.50;;;;;;;28.25;40.80;102505.47;5087746;28;20110;-71
2022/07/11 04:34:18;;;;;;;6.97;3.55;;;;;;;28.27;41.27;102504.44;5073709;28;20043;-71
2022/07/11 04:36:44;;;;;;;4.75;2.72;;;;;;;27.58;42.65;102505.69;5086741;28;20556;-71
2022/07/11 04:39:09;;;;;;;6.80;2.88;;;;;;;28.17;41.32;102502.38;5078459;28;20021;-71
2022/07/11 04:41:35;;;;;;;4.30;2.30;;;;;;;28.33;40.74;102502.31;5073410;28;20098;-71
2022/07/11 04:44:00;;;;;;;3.53;2.05;;;;;;;28.08;41.55;102498.38;5072131;28;20045;-71
2022/07/11 04:46:26;;;;;;;2.45;1.95;;;;;;;27.10;43.65;102494.84;5072780;28;20032;-71
2022/07/11 04:48:51;;;;;;;8.07;3.28;;;;;;;27.15;43.33;102498.16;5071360;28;20534;-71
2022/07/11 04:51:17;;;;;;;5.57;1.88;;;;;;;26.63;44.32;102501.75;5086573;28;20476;-71
2022/07/11 04:53:42;;;;;;;3.35;2.22;;;;;;;27.21;43.32;102503.16;5076781;28;20086;-71
2022/07/11 04:56:08;;;;;;;6.05;2.30;;;;;;;27.14;43.58;102507.13;5071186;28;20036;-71
2022/07/11 04:58:35;;;;;;;3.95;2.20;;;;;;;27.76;42.64;102511.81;5072268;28;20032;-71
2022/07/11 05:01:01;;;;;;;2.33;2.10;;;;;;;27.43;42.66;102512.75;5071475;28;20097;-71
2022/07/11 05:03:26;;;;;;;4.32;2.42;;;;;;;27.42;42.79;102502.97;5071401;28;20032;-70
2022/07/11 05:05:51;;;;;;;3.90;2.50;;;;;;;26.48;44.24;102513.28;5072394;28;20029;-72
2022/07/11 05:08:17;;;;;;;2.72;2.40;;;;;;;27.44;42.71;102501.09;5078600;28;20063;-71
2022/07/11 05:10:42;;;;;;;6.78;2.17;;;;;;;26.87;44.29;102521.09;5091801;28;20468;-71
2022/07/11 05:13:07;;;;;;;2.20;1.52;;;;;;;27.01;43.56;102523.03;5091240;28;20448;-71
2022/07/11 05:15:33;;;;;;;3.55;1.63;;;;;;;26.59;44.76;102511.75;5093686;28;20525;-71
2022/07/11 05:17:58;;;;;;;3.90;1.60;;;;;;;27.24;43.45;102516.44;5082815;28;20510;-71
2022/07/11 05:20:24;;;;;;;1.63;1.27;;;;;;;26.86;44.64;102530.09;5086331;28;20028;-71
2022/07/11 05:22:49;;;;;;;3.15;1.63;;;;;;;26.69;44.69;102532.75;5072007;28;20024;-71
2022/07/11 05:25:14;;;;;;;3.13;1.48;;;;;;;26.71;44.63;102533.56;5086602;28;20399;-71
2022/07/11 05:27:40;;;;;;;1.83;1.10;;;;;;;26.14;45.43;102534.56;5082090;28;20063;-70
2022/07/11 05:30:06;;;;;;;3.10;1.38;;;;;;;27.59;42.93;102543.19;5083979;28;20031;-71
2022/07/11 05:32:31;;;;;;;2.50;1.20;;;;;;;26.87;44.06;102550.59;5092286;28;20066;-71
2022/07/11 05:34:58;;;;;;;4.15;1.65;;;;;;;25.82;46.77;102554.88;5080719;28;20606;-71
2022/07/11 05:37:24;;;;;;;2.08;1.27;;;;;;;25.48;47.54;102553.78;5079300;28;20039;-71
2022/07/11 05:39:50;;;;;;;2.30;1.20;;;;;;;26.86;45.06;102556.91;5074449;28;20032;-71
2022/07/11 05:42:16;;;;;;;2.42;1.30;;;;;;;26.78;44.71;102551.06;5070334;28;20028;-71
2022/07/11 05:44:41;;;;;;;3.67;1.80;;;;;;;27.11;43.78;102555.63;5045291;28;20530;-71
2022/07/11 05:47:07;;;;;;;6.63;1.60;;;;;;;26.61;45.49;102559.09;5035314;28;20540;-70
2022/07/11 05:49:32;;;;;;;2.13;1.20;;;;;;;26.11;46.70;102548.13;5053552;28;20021;-72
2022/07/11 05:51:58;;;;;;;2.03;1.25;;;;;;;25.71;47.97;102558.06;5047055;28;20044;-70
2022/07/11 05:54:23;;;;;;;5.05;1.38;;;;;;;25.97;47.77;102556.81;5054942;28;20036;-71
2022/07/11 05:56:49;;;;;;;3.42;1.63;;;;;;;25.80;47.01;102562.09;5054434;28;20200;-71
2022/07/11 05:59:14;;;;;;;2.05;1.45;;;;;;;26.02;46.88;102561.97;5047044;28;20116;-71
2022/07/11 06:01:40;;;;;;;6.07;1.58;;;;;;;26.12;46.52;102571.31;5053605;28;20457;-71
2022/07/11 06:04:05;;;;;;;1.88;1.02;;;;;;;26.77;44.87;102573.47;5048675;28;20032;-71
2022/07/11 06:06:31;;;;;;;3.40;1.08;;;;;;;27.23;43.93;102565.69;5071869;28;20036;-71
2022/07/11 06:08:57;;;;;;;3.53;1.10;;;;;;;26.79;43.59;102566.22;5043946;28;20033;-70
2022/07/11 06:11:22;;;;;;;2.38;1.17;;;;;;;26.29;45.24;102561.56;5051199;28;20028;-71
2022/07/11 06:13:51;;;;;;;3.22;1.20;;;;;;;27.20;44.16;102565.88;5037786;28;20037;-71
2022/07/11 06:16:17;;;;;;;1.52;1.00;;;;;;;28.40;41.49;102546.72;5038800;28;20025;-71
2022/07/11 06:18:43;;;;;;;2.17;1.23;;;;;;;27.40;43.03;102539.78;5050955;28;20032;-71
2022/07/11 06:21:08;;;;;;;3.80;1.15;;;;;;;27.55;42.80;102538.94;5050557;28;20139;-71
2022/07/11 06:23:37;;;;;;;2.92;1.00;;;;;;;27.32;43.49;102542.00;5034333;28;20029;-71
2022/07/11 06:26:04;;;;;;;3.20;1.00;;;;;;;27.98;42.30;102534.78;5043250;28;20040;-71
2022/07/11 06:28:30;;;;;;;2.95;1.27;;;;;;;27.11;43.80;102544.88;5034547;28;20174;-71
2022/07/11 06:30:55;;;;;;;1.92;1.10;;;;;;;26.31;45.30;102535.56;5036131;28;20108;-71
2022/07/11 06:33:21;;;;;;;3.75;1.55;;;;;;;27.11;44.07;102539.53;5051396;28;20050;-71
2022/07/11 06:35:47;;;;;;;4.20;1.80;;;;;;;27.26;43.71;102533.31;5045035;28;20037;-71
2022/07/11 06:38:14;;;;;;;3.42;1.00;;;;;;;27.92;41.95;102528.81;5037111;28;20464;-71
2022/07/11 06:40:41;;;;;;;5.25;1.20;;;;;;;27.24;43.85;102535.22;5028576;28;20475;-71
2022/07/11 06:43:07;;;;;;;3.03;0.93;;;;;;;27.55;43.17;102533.56;5054870;28;20052;-71
2022/07/11 06:45:33;;;;;;;1.70;0.85;;;;;;;27.79;41.98;102530.44;5056302;28;20028;-71
2022/07/11 06:47:59;;;;;;;4.28;1.30;;;;;;;27.34;43.47;102537.38;5034325;28;20032;-72
2022/07/11 06:50:24;;;;;;;2.42;1.60;;;;;;;28.15;41.30;102533.81;5052984;28;20404;-72
2022/07/11 06:52:50;;;;;;;2.30;0.90;;;;;;;28.50;41.22;102542.50;5082854;28;20038;-72
2022/07/11 06:55:16;;;;;;;6.30;1.10;;;;;;;28.75;39.83;102541.06;5072149;28;20062;-72
2022/07/11 06:57:42;;;;;;;1.40;0.95;;;;;;;28.25;41.39;102549.34;5046130;28;20493;-70
2022/07/11 07:00:08;;;;;;;1.98;1.10;;;;;;;28.21;41.69;102547.78;5043037;28;20035;-71
2022/07/11 07:02:34;;;;;;;1.52;1.42;;;;;;;28.09;41.28;102543.13;5052649;28;20384;-72
2022/07/11 07:04:59;;;;;;;2.05;1.10;;;;;;;28.10;41.58;102553.78;5033258;28;20047;-71
2022/07/11 07:07:25;;;;;;;3.78;1.20;;;;;;;27.32;42.72;102547.34;5037837;28;20025;-71
2022/07/11 07:09:52;;;;;;;2.40;1.00;;;;;;;28.32;40.79;102554.38;5039176;28;20033;-71
2022/07/11 07:12:17;;;;;;;4.07;1.38;;;;;;;29.18;39.37;102554.59;5046017;28;20534;-71
2022/07/11 07:14:43;;;;;;;2.45;1.10;;;;;;;28.20;41.92;102547.88;5041140;28;20028;-71
2022/07/11 07:17:08;;;;;;;2.40;0.80;;;;;;;28.31;41.56;102552.63;5052221;28;20051;-71
2022/07/11 07:19:33;;;;;;;2.75;1.08;;;;;;;28.15;40.96;102558.91;5044087;28;20028;-71
2022/07/11 07:21:59;;;;;;;2.08;1.08;;;;;;;26.89;43.87;102571.97;5031894;28;20064;-71
2022/07/11 07:24:24;;;;;;;1.98;1.25;;;;;;;26.55;44.35;102563.81;5038885;28;20036;-71
2022/07/11 07:26:50;;;;;;;1.70;1.30;;;;;;;26.97;44.73;102571.56;5045426;28;20033;-71
2022/07/11 07:29:15;;;;;;;1.73;1.38;;;;;;;28.89;41.04;102554.56;5046918;28;20034;-71
2022/07/11 07:31:41;;;;;;;2.20;1.30;;;;;;;28.91;40.41;102558.00;5047395;28;20036;-71
2022/07/11 07:34:08;;;;;;;4.35;2.80;;;;;;;28.85;40.47;102552.13;5037756;28;20031;-70
2022/07/11 07:36:33;;;;;;;5.22;3.70;;;;;;;29.72;37.97;102558.41;5062857;28;20071;-70
2022/07/11 07:38:58;;;;;;;5.78;3.95;;;;;;;29.42;38.99;102560.28;5055870;28;20452;-70
2022/07/11 07:41:24;;;;;;;5.78;4.30;;;;;;;29.74;37.58;102567.25;5036482;28;20543;-70
2022/07/11 07:43:49;;;;;;;8.73;4.50;;;;;;;30.19;36.73;102559.84;5050178;28;20475;-69
2022/07/11 07:46:15;;;;;;;7.47;4.82;;;;;;;30.43;36.60;102565.44;5049940;28;20083;-70
2022/07/11 07:48:41;;;;;;;10.35;5.97;;;;;;;29.65;37.97;102568.72;5034488;28;20756;-70
2022/07/11 07:51:08;;;;;;;8.13;6.07;;;;;;;30.65;36.61;102568.50;5042607;28;20050;-70
2022/07/11 07:53:34;;;;;;;12.45;6.70;;;;;;;30.41;36.60;102572.75;5039163;28;20070;-70
2022/07/11 07:55:59;;;;;;;9.00;6.55;;;;;;;29.60;38.53;102569.00;5032972;28;20045;-70
2022/07/11 07:58:25;;;;;;;10.60;7.28;;;;;;;30.12;36.92;102563.91;5064521;28;20044;-70
2022/07/11 08:03:35;;;;;;;8.30;6.85;;;;;;;29.26;38.77;102568.47;5073504;28;20042;-70
2022/07/11 08:06:00;;;;;;;9.10;6.55;;;;;;;30.26;37.26;102563.84;5073535;28;20024;-70
2022/07/11 08:08:25;;;;;;;8.10;6.97;;;;;;;30.21;37.06;102563.31;5042842;28;20035;-70
2022/07/11 08:10:52;;;;;;;8.88;7.05;;;;;;;31.30;35.57;102570.31;5054505;28;20427;-70
2022/07/11 08:13:18;;;;;;;10.00;6.90;;;;;;;31.36;35.52;102574.41;5053560;28;20096;-71
2022/07/11 08:15:43;;;;;;;12.23;8.27;;;;;;;30.18;37.05;102574.28;5062040;28;20104;-70
2022/07/11 08:18:09;;;;;;;10.50;7.88;;;;;;;31.04;35.81;102577.56;5052218;28;20052;-71
2022/07/11 08:20:34;;;;;;;12.73;7.93;;;;;;;29.67;37.78;102582.94;5073559;28;20111;-70
2022/07/11 08:23:00;;;;;;;11.15;7.05;;;;;;;29.72;37.92;102575.44;5056087;28;20119;-70
2022/07/11 08:25:26;;;;;;;10.57;8.30;;;;;;;29.97;37.49;102573.03;5074142;28;20043;-70
2022/07/11 08:27:51;;;;;;;9.15;7.65;;;;;;;30.47;36.62;102576.88;5070415;28;20469;-70
2022/07/11 08:30:17;;;;;;;8.57;7.60;;;;;;;29.97;37.88;102575.72;5056038;28;20048;-70
2022/07/11 08:32:43;;;;;;;9.57;7.90;;;;;;;30.48;37.05;102573.22;5056415;28;20033;-70
2022/07/11 08:35:09;;;;;;;9.20;7.22;;;;;;;29.61;38.52;102577.97;5035409;28;20074;-70
2022/07/11 08:37:36;;;;;;;12.35;9.63;;;;;;;29.31;38.82;102580.78;5058098;28;20398;-70
2022/07/11 08:40:02;;;;;;;11.25;7.97;;;;;;;30.26;37.26;102574.63;5054891;28;20028;-70
2022/07/11 08:42:29;;;;;;;11.00;8.75;;;;;;;30.73;36.08;102571.53;5044016;28;20115;-70
2022/07/11 08:44:56;;;;;;;10.70;8.25;;;;;;;31.77;34.04;102567.84;5035987;28;20033;-70
2022/07/11 08:47:24;;;;;;;18.10;8.48;;;;;;;30.90;35.61;102578.47;5053014;28;20029;-70
2022/07/11 08:49:49;;;;;;;12.70;7.88;;;;;;;29.23;37.62;102576.69;5052385;28;20020;-70
2022/07/11 08:52:15;;;;;;;10.48;8.50;;;;;;;30.01;37.11;102566.47;5074063;28;20041;-69
2022/07/11 08:54:41;;;;;;;10.15;8.18;;;;;;;29.34;38.43;102575.19;5067895;28;20033;-70
2022/07/11 08:57:06;;;;;;;11.68;8.38;;;;;;;31.38;35.52;102557.09;5053839;28;20583;-69
2022/07/11 08:59:35;;;;;;;8.65;7.07;;;;;;;31.32;35.60;102567.50;5037138;28;20013;-70
2022/07/11 09:02:03;;;;;;;8.95;7.30;;;;;;;31.83;33.97;102556.56;5053029;28;20373;-71
2022/07/11 09:04:30;;;;;;;9.10;6.43;;;;;;;32.25;32.81;102561.63;5053707;28;20425;-70
2022/07/11 09:06:55;;;;;;;8.80;6.28;;;;;;;31.90;34.20;102568.69;5049610;28;20027;-71
2022/07/11 09:09:21;;;;;;;8.27;6.75;;;;;;;28.48;38.66;102576.72;5044296;28;20395;-70
2022/07/11 09:11:55;;;;;;;10.93;7.22;;;;;;;29.54;37.91;102558.63;5054078;28;20032;-70
2022/07/11 09:14:30;;;;;;;27.02;9.30;;;;;;;30.87;35.83;102568.78;5037455;28;20170;-70
2022/07/11 09:16:58;;;;;;;12.82;7.65;;;;;;;30.26;36.27;102569.25;5034470;28;20013;-70
2022/07/11 09:19:26;;;;;;;10.23;7.93;;;;;;;31.54;35.05;102566.78;5063405;28;20065;-70
2022/07/11 09:27:48;;;;;;;10.23;8.30;;;;;;;32.90;33.43;102565.63;5053402;28;20530;-71
2022/07/11 09:30:35;;;;;;;8.18;6.72;;;;;;;33.49;31.16;102567.28;5051493;28;20468;-71
2022/07/11 09:33:05;;;;;;;8.65;6.25;;;;;;;33.31;31.36;102566.94;5040899;28;20064;-71
2022/07/11 09:35:39;;;;;;;7.72;6.18;;;;;;;34.62;30.32;102559.81;5052154;28;20493;-70
2022/07/11 09:38:07;;;;;;;9.63;6.55;;;;;;;35.62;28.77;102566.47;5035711;28;20528;-71
2022/07/11 09:40:33;;;;;;;6.75;5.70;;;;;;;35.27;28.02;102565.91;5041720;28;20083;-71
2022/07/11 09:43:00;;;;;;;7.93;5.88;;;;;;;32.89;32.11;102561.22;5069470;28;20528;-71
2022/07/11 09:45:27;;;;;;;7.47;6.07;;;;;;;33.34;31.62;102554.13;5036202;28;20029;-71
2022/07/11 09:47:57;;;;;;;7.63;6.10;;;;;;;34.05;30.77;102559.22;5072667;28;20036;-71
2022/07/11 09:50:26;;;;;;;9.18;6.13;;;;;;;36.03;28.21;102563.72;5052030;28;20017;-71
2022/07/11 09:53:06;;;;;;;8.02;6.20;;;;;;;36.31;26.94;102567.41;5071205;28;20040;-71
2022/07/11 09:55:40;;;;;;;7.28;5.18;;;;;;;34.36;29.87;102567.47;5072650;28;20028;-72
2022/07/11 09:58:07;;;;;;;7.70;5.63;;;;;;;34.42;29.72;102572.41;5067491;28;20091;-70
2022/07/11 10:00:35;;;;;;;6.15;5.43;;;;;;;34.48;30.15;102567.28;5053607;28;20059;-70
2022/07/11 10:03:01;;;;;;;7.55;5.65;;;;;;;34.37;29.96;102563.78;5054643;28;20035;-71
2022/07/11 10:05:28;;;;;;;5.80;5.20;;;;;;;34.22;29.80;102558.63;5035248;28;20405;-70
2022/07/11 10:07:55;;;;;;;6.55;5.28;;;;;;;32.71;31.21;102566.22;5061798;28;20051;-70
2022/07/11 10:10:20;;;;;;;6.28;5.07;;;;;;;33.27;31.04;102573.56;5034642;28;20350;-70
2022/07/11 10:12:46;;;;;;;6.30;5.43;;;;;;;33.55;30.99;102573.19;5042179;28;20040;-70
2022/07/11 10:15:16;;;;;;;9.32;5.13;;;;;;;34.19;29.81;102561.59;5053504;28;20445;-71
2022/07/11 10:18:02;;;;;;;9.32;5.00;;;;;;;33.48;30.98;102568.28;5037584;28;20025;-70
2022/07/11 10:20:35;;;;;;;6.25;5.40;;;;;;;34.20;30.24;102563.34;5009544;28;20099;-69
2022/07/11 10:23:18;;;;;;;7.88;5.05;;;;;;;34.16;30.25;102561.88;5051767;28;20025;-70
2022/07/11 10:25:55;;;;;;;8.35;5.63;;;;;;;35.80;28.39;102559.34;5046204;28;20023;-70
2022/07/11 10:28:26;;;;;;;5.63;4.95;;;;;;;35.42;28.04;102560.13;5033495;28;20485;-70
2022/07/11 10:30:59;;;;;;;6.97;4.90;;;;;;;36.03;27.81;102552.84;5039441;28;20021;-70
2022/07/11 10:33:26;;;;;;;7.22;4.80;;;;;;;36.82;26.66;102560.81;5053647;28;20424;-70
2022/07/11 10:35:53;;;;;;;6.30;4.57;;;;;;;35.53;27.93;102568.19;5059552;28;20083;-70
2022/07/11 10:38:19;;;;;;;7.57;4.63;;;;;;;35.29;28.96;102561.19;5040825;28;20028;-70
2022/07/11 10:40:56;;;;;;;6.72;4.43;;;;;;;33.66;30.85;102570.47;5042242;28;20036;-70
2022/07/11 10:43:21;;;;;;;6.03;4.90;;;;;;;35.69;28.39;102566.78;5059398;28;20529;-70
2022/07/11 10:45:58;;;;;;;5.30;4.20;;;;;;;34.42;29.19;102572.41;5072516;28;20040;-70
2022/07/11 10:48:25;;;;;;;6.63;4.80;;;;;;;35.22;28.97;102576.31;5080793;28;20024;-70
2022/07/11 10:51:21;;;;;;;5.93;4.15;;;;;;;35.47;28.55;102577.72;5071688;28;20027;-70
2022/07/11 10:53:53;;;;;;;4.63;3.85;;;;;;;34.14;29.79;102571.97;5071668;28;20108;-70
2022/07/11 10:56:50;;;;;;;5.03;3.85;;;;;;;37.46;25.58;102571.91;5074130;28;20024;-71
2022/07/11 10:59:18;;;;;;;6.88;3.40;;;;;;;36.37;27.01;102566.00;5072869;28;20037;-70
2022/07/11 11:02:02;;;;;;;4.93;3.67;;;;;;;38.18;24.94;102562.94;5087787;28;20484;-71
2022/07/11 11:04:47;;;;;;;5.55;3.50;;;;;;;36.30;27.32;102560.25;5090435;28;20060;-70
2022/07/11 11:07:31;;;;;;;3.35;3.05;;;;;;;36.31;26.65;102562.88;5076595;28;20384;-70
2022/07/11 11:09:58;;;;;;;3.42;3.13;;;;;;;35.82;25.98;102545.66;5069417;28;20107;-70
2022/07/11 11:13:04;;;;;;;4.75;3.40;;;;;;;38.10;23.99;102551.94;5069947;28;20074;-70
2022/07/11 11:15:32;;;;;;;4.45;3.42;;;;;;;38.57;24.47;102551.69;5079726;28;20032;-70
2022/07/11 11:17:58;;;;;;;3.95;3.08;;;;;;;36.78;25.10;102553.03;5080722;28;20035;-70
2022/07/11 11:20:32;;;;;;;3.92;3.20;;;;;;;36.49;27.21;102564.84;5091659;28;20028;-70
2022/07/11 11:23:10;;;;;;;12.52;4.32;;;;;;;36.88;26.51;102569.38;5083187;28;20032;-71
2022/07/11 11:25:36;;;;;;;3.60;2.92;;;;;;;36.78;25.47;102566.66;5085159;28;20032;-70
2022/07/11 11:28:04;;;;;;;6.90;3.63;;;;;;;37.48;24.77;102567.16;5070006;28;20036;-71
2022/07/11 11:30:30;;;;;;;3.90;2.45;;;;;;;36.17;25.83;102561.41;5082018;28;20754;-70